createdAt,value
2022-09-02T00:02:04.071Z,12.26
2022-09-02T00:04:33.765Z,12.18
2022-09-02T00:07:03.275Z,12.07
2022-09-02T00:09:33.897Z,12.07
2022-09-02T00:12:06.740Z,12.02
2022-09-02T00:14:38.430Z,11.95
2022-09-02T00:17:08.130Z,12.06
2022-09-02T00:19:38.878Z,12.14
2022-09-02T00:22:08.530Z,12.08
2022-09-02T00:24:38.534Z,11.98
2022-09-02T00:27:10.790Z,12.12
2022-09-02T00:29:40.322Z,12.04
2022-09-02T00:32:10.190Z,12.02
2022-09-02T00:34:39.727Z,12.02
2022-09-02T00:37:09.352Z,12.12
2022-09-02T00:39:38.888Z,12.00
2022-09-02T00:42:12.043Z,12.08
2022-09-02T00:44:41.558Z,12.09
2022-09-02T00:47:11.261Z,12.13
2022-09-02T00:49:42.949Z,12.01
2022-09-02T00:52:15.390Z,11.97
2022-09-02T00:54:50.070Z,12.04
2022-09-02T00:57:24.807Z,12.12
2022-09-02T01:00:00.177Z,12.08
2022-09-02T01:02:31.751Z,12.13
2022-09-02T01:05:04.042Z,11.93
2022-09-02T01:07:37.405Z,11.91
2022-09-02T01:10:09.015Z,11.91
2022-09-02T01:12:41.336Z,11.70
2022-09-02T01:15:12.410Z,11.65
2022-09-02T01:17:45.540Z,11.64
2022-09-02T01:20:19.241Z,11.56
2022-09-02T01:22:54.569Z,11.52
2022-09-02T01:25:27.407Z,11.53
2022-09-02T01:28:02.315Z,11.44
2022-09-02T01:30:33.260Z,11.34
2022-09-02T01:33:02.806Z,11.39
2022-09-02T01:35:32.484Z,11.30
2022-09-02T01:38:05.183Z,11.33
2022-09-02T01:40:36.082Z,11.34
2022-09-02T01:43:08.549Z,11.29
2022-09-02T01:45:38.895Z,11.32
2022-09-02T01:48:09.381Z,11.37
2022-09-02T01:50:43.753Z,11.38
2022-09-02T01:53:19.299Z,11.34
2022-09-02T01:55:49.369Z,11.17
2022-09-02T01:58:19.399Z,11.30
2022-09-02T02:00:49.148Z,11.42
2022-09-02T02:03:19.621Z,11.35
2022-09-02T02:05:49.109Z,11.20
2022-09-02T02:08:21.226Z,11.22
2022-09-02T02:10:50.750Z,11.13
2022-09-02T02:13:20.352Z,10.99
2022-09-02T02:15:49.957Z,11.05
2022-09-02T02:18:19.482Z,11.02
2022-09-02T02:20:50.141Z,10.89
2022-09-02T02:23:22.546Z,10.85
2022-09-02T02:25:52.097Z,10.98
2022-09-02T02:28:21.573Z,10.84
2022-09-02T02:30:51.382Z,10.78
2022-09-02T02:33:20.830Z,10.53
2022-09-02T02:35:55.620Z,10.58
2022-09-02T02:38:27.861Z,10.54
2022-09-02T02:41:00.182Z,10.95
2022-09-02T02:43:29.721Z,11.34
2022-09-02T02:45:59.203Z,11.41
2022-09-02T02:48:29.110Z,11.28
2022-09-02T02:50:58.569Z,11.44
2022-09-02T02:53:31.373Z,11.67
2022-09-02T02:56:00.977Z,11.36
2022-09-02T02:58:30.864Z,11.05
2022-09-02T03:01:01.041Z,10.74
2022-09-02T03:03:31.992Z,10.64
2022-09-02T03:06:01.798Z,10.33
2022-09-02T03:08:35.290Z,10.28
2022-09-02T03:11:07.085Z,10.42
2022-09-02T03:13:37.944Z,10.29
2022-09-02T03:16:07.797Z,10.17
2022-09-02T03:18:37.969Z,10.22
2022-09-02T03:21:10.298Z,10.23
2022-09-02T03:23:42.434Z,10.16
2022-09-02T03:26:12.957Z,10.11
2022-09-02T03:28:42.805Z,10.09
2022-09-02T03:31:17.675Z,10.20
2022-09-02T03:33:48.185Z,10.18
2022-09-02T03:36:25.811Z,10.09
2022-09-02T03:38:58.610Z,10.12
2022-09-02T03:41:28.495Z,10.23
2022-09-02T03:43:59.220Z,10.24
2022-09-02T03:46:28.734Z,10.29
2022-09-02T03:48:58.245Z,10.15
2022-09-02T03:51:29.161Z,10.13
2022-09-02T03:54:02.769Z,10.13
2022-09-02T03:56:32.306Z,10.09
2022-09-02T03:59:01.986Z,10.07
2022-09-02T04:01:34.502Z,10.00
2022-09-02T04:04:04.995Z,9.95
2022-09-02T04:06:34.836Z,10.07
2022-09-02T04:09:08.318Z,10.08
2022-09-02T04:11:37.991Z,10.02
2022-09-02T04:14:07.481Z,9.91
2022-09-02T04:16:37.233Z,9.93
2022-09-02T04:19:07.066Z,10.11
2022-09-02T04:21:38.354Z,10.16
2022-09-02T04:24:12.032Z,10.01
2022-09-02T04:26:45.203Z,9.94
2022-09-02T04:29:15.126Z,9.89
2022-09-02T04:31:46.361Z,9.77
2022-09-02T04:34:15.934Z,9.82
2022-09-02T04:36:45.625Z,9.76
2022-09-02T04:39:17.700Z,9.71
2022-09-02T04:41:47.222Z,9.65
2022-09-02T04:44:16.781Z,9.79
2022-09-02T04:46:46.756Z,9.76
2022-09-02T04:49:16.266Z,9.77
2022-09-02T04:51:46.000Z,9.80
2022-09-02T04:54:18.088Z,9.85
2022-09-02T04:56:47.586Z,9.95
2022-09-02T04:59:17.032Z,10.02
2022-09-02T05:01:46.649Z,9.92
2022-09-02T05:04:16.689Z,9.90
2022-09-02T05:06:47.128Z,9.92
2022-09-02T05:09:19.221Z,10.03
2022-09-02T05:11:49.085Z,9.98
2022-09-02T05:14:19.401Z,9.96
2022-09-02T05:16:49.455Z,10.12
2022-09-02T05:19:23.395Z,10.16
2022-09-02T05:21:56.154Z,10.27
2022-09-02T05:24:29.682Z,10.33
2022-09-02T05:26:59.421Z,10.47
2022-09-02T05:29:28.922Z,10.59
2022-09-02T05:31:58.689Z,10.61
2022-09-02T05:34:28.250Z,10.66
2022-09-02T05:36:57.776Z,10.75
2022-09-02T05:39:31.216Z,10.79
2022-09-02T05:42:00.941Z,10.79
2022-09-02T05:44:31.424Z,10.84
2022-09-02T05:47:00.948Z,10.86
2022-09-02T05:49:30.615Z,10.86
2022-09-02T05:52:02.342Z,10.88
2022-09-02T05:54:36.365Z,10.96
2022-09-02T05:57:09.218Z,11.08
2022-09-02T05:59:42.529Z,11.09
2022-09-02T06:02:13.124Z,11.07
2022-09-02T06:04:42.946Z,11.18
2022-09-02T06:07:13.612Z,11.78
2022-09-02T06:09:46.731Z,12.46
2022-09-02T06:12:17.743Z,12.57
2022-09-02T06:14:47.596Z,12.56
2022-09-02T06:17:17.077Z,12.59
2022-09-02T06:19:47.329Z,12.64
2022-09-02T06:22:17.433Z,12.89
2022-09-02T06:24:49.519Z,12.96
2022-09-02T06:27:19.225Z,12.89
2022-09-02T06:29:48.782Z,12.94
2022-09-02T06:32:18.360Z,12.75
2022-09-02T06:34:48.108Z,12.54
2022-09-02T06:37:17.603Z,12.43
2022-09-02T06:39:49.791Z,12.49
2022-09-02T06:42:19.447Z,12.67
2022-09-02T06:44:48.936Z,12.73
2022-09-02T06:47:18.407Z,12.82
2022-09-02T06:49:47.918Z,12.94
2022-09-02T06:52:17.502Z,13.05
2022-09-02T06:54:50.765Z,13.14
2022-09-02T06:57:20.405Z,13.24
2022-09-02T06:59:52.025Z,13.34
2022-09-02T07:02:28.779Z,13.46
2022-09-02T07:05:10.528Z,13.61
2022-09-02T07:07:41.822Z,13.67
2022-09-02T07:10:15.301Z,13.66
2022-09-02T07:12:44.947Z,13.75
2022-09-02T07:15:14.834Z,13.90
2022-09-02T07:17:44.349Z,14.04
2022-09-02T07:20:14.505Z,14.12
2022-09-02T07:22:44.157Z,14.26
2022-09-02T07:25:16.411Z,14.44
2022-09-02T07:27:46.581Z,14.55
2022-09-02T07:30:16.661Z,14.69
2022-09-02T07:32:46.210Z,14.82
2022-09-02T07:35:15.744Z,14.93
2022-09-02T07:37:45.295Z,14.96
2022-09-02T07:40:17.550Z,15.07
2022-09-02T07:42:50.354Z,15.10
2022-09-02T07:45:20.108Z,15.20
2022-09-02T07:47:49.696Z,15.35
2022-09-02T07:50:21.122Z,15.48
2022-09-02T07:52:51.646Z,15.53
2022-09-02T07:55:24.616Z,15.60
2022-09-02T07:57:55.748Z,15.70
2022-09-02T08:00:27.705Z,15.82
2022-09-02T08:02:57.557Z,15.96
2022-09-02T08:05:27.230Z,16.07
2022-09-02T08:07:56.966Z,16.15
2022-09-02T08:10:30.108Z,16.28
2022-09-02T08:13:01.397Z,16.41
2022-09-02T08:15:32.407Z,16.62
2022-09-02T08:18:02.413Z,16.67
2022-09-02T08:20:32.129Z,16.69
2022-09-02T08:23:11.632Z,16.78
2022-09-02T08:25:45.329Z,16.99
2022-09-02T08:28:15.313Z,17.13
2022-09-02T08:30:45.099Z,17.11
2022-09-02T08:33:14.820Z,17.18
2022-09-02T08:35:44.333Z,17.20
2022-09-02T08:38:13.933Z,17.19
2022-09-02T08:40:46.961Z,17.30
2022-09-02T08:43:29.379Z,17.41
2022-09-02T08:46:01.527Z,17.43
2022-09-02T08:48:37.306Z,17.55
2022-09-02T08:51:10.436Z,17.60
2022-09-02T08:53:43.395Z,17.73
2022-09-02T08:56:16.358Z,17.93
2022-09-02T08:58:47.301Z,17.95
2022-09-02T09:01:24.652Z,18.04
2022-09-02T09:04:13.842Z,18.01
2022-09-02T09:06:52.699Z,18.03
2022-09-02T09:09:27.165Z,18.04
2022-09-02T09:12:06.123Z,18.02
2022-09-02T09:14:38.575Z,18.11
2022-09-02T09:17:13.141Z,18.20
2022-09-02T09:19:51.555Z,18.28
2022-09-02T09:22:22.877Z,18.21
2022-09-02T09:24:53.319Z,18.41
2022-09-02T09:27:25.785Z,18.50
2022-09-02T09:29:56.031Z,18.47
2022-09-02T09:32:30.402Z,18.61
2022-09-02T09:35:04.964Z,18.72
2022-09-02T09:37:37.523Z,18.76
2022-09-02T09:40:30.604Z,18.84
2022-09-02T09:43:16.182Z,18.87
2022-09-02T09:45:47.290Z,19.00
2022-09-02T09:48:23.059Z,19.13
2022-09-02T09:51:12.998Z,19.12
2022-09-02T09:53:43.253Z,19.18
2022-09-02T09:56:27.522Z,19.02
2022-09-02T09:58:59.621Z,19.24
2022-09-02T10:01:31.882Z,19.18
2022-09-02T10:04:04.914Z,19.45
2022-09-02T10:06:41.898Z,19.52
2022-09-02T10:09:32.372Z,19.27
2022-09-02T10:12:05.145Z,19.56
2022-09-02T10:14:42.446Z,19.77
2022-09-02T10:17:29.746Z,19.87
2022-09-02T10:20:04.918Z,19.84
2022-09-02T10:23:00.867Z,19.86
2022-09-02T10:25:35.950Z,19.87
2022-09-02T10:28:14.864Z,19.99
2022-09-02T10:30:55.075Z,20.09
2022-09-02T10:33:40.043Z,20.16
2022-09-02T10:36:19.810Z,20.26
2022-09-02T10:38:52.093Z,20.26
2022-09-02T10:44:38.272Z,20.34
2022-09-02T10:47:15.629Z,20.22
2022-09-02T10:49:57.665Z,20.25
2022-09-02T10:52:38.603Z,20.48
2022-09-02T10:55:15.331Z,20.18
2022-09-02T10:57:49.392Z,20.46
2022-09-02T11:00:21.208Z,20.49
2022-09-02T11:02:56.908Z,20.61
2022-09-02T11:05:28.786Z,20.45
2022-09-02T11:08:03.529Z,20.05
2022-09-02T11:10:38.043Z,19.79
2022-09-02T11:13:11.114Z,20.08
2022-09-02T11:15:47.327Z,20.51
2022-09-02T11:18:26.638Z,20.79
2022-09-02T11:21:00.149Z,21.03
2022-09-02T11:23:37.367Z,21.25
2022-09-02T11:26:11.134Z,21.39
2022-09-02T11:28:45.238Z,21.41
2022-09-02T11:31:19.579Z,21.44
2022-09-02T11:33:56.197Z,21.42
2022-09-02T11:36:33.213Z,21.55
2022-09-02T11:39:07.065Z,21.50
2022-09-02T11:42:02.136Z,21.38
2022-09-02T11:44:52.307Z,20.80
2022-09-02T11:47:45.501Z,20.69
2022-09-02T11:50:27.629Z,20.40
2022-09-02T11:53:13.225Z,20.64
2022-09-02T11:55:44.167Z,20.54
2022-09-02T11:58:13.665Z,20.35
2022-09-02T12:01:08.460Z,20.41
2022-09-02T12:04:16.238Z,20.77
2022-09-02T12:06:40.249Z,20.66
2022-09-02T12:09:11.986Z,20.46
2022-09-02T12:11:55.150Z,20.89
2022-09-02T12:15:08.253Z,21.17
2022-09-02T12:17:48.735Z,21.53
2022-09-02T12:20:51.152Z,21.87
2022-09-02T12:23:57.059Z,21.71
2022-09-02T12:26:31.685Z,21.58
2022-09-02T12:29:14.952Z,21.51
2022-09-02T12:31:45.758Z,22.05
2022-09-02T12:34:46.873Z,22.63
2022-09-02T12:37:47.246Z,22.88
2022-09-02T12:40:30.028Z,23.19
2022-09-02T12:43:08.170Z,23.37
2022-09-02T12:45:44.183Z,23.35
2022-09-02T12:48:16.386Z,23.20
2022-09-02T12:50:57.288Z,23.64
2022-09-02T12:53:37.351Z,22.97
2022-09-02T12:56:09.614Z,22.54
2022-09-02T12:58:49.301Z,22.21
2022-09-02T13:01:22.260Z,22.71
2022-09-02T13:04:05.042Z,23.34
2022-09-02T13:06:46.105Z,23.20
2022-09-02T13:09:45.454Z,22.69
2022-09-02T13:12:51.874Z,22.88
2022-09-02T13:15:26.474Z,23.39
2022-09-02T13:18:33.069Z,23.98
2022-09-02T13:21:31.013Z,24.52
2022-09-02T13:24:16.081Z,24.57
2022-09-02T13:27:01.969Z,23.88
2022-09-02T13:30:08.682Z,24.64
2022-09-02T13:32:41.270Z,24.99
2022-09-02T13:35:23.942Z,25.34
2022-09-02T13:37:59.731Z,25.57
2022-09-02T13:40:33.550Z,25.74
2022-09-02T13:43:04.554Z,25.82
2022-09-02T13:45:36.055Z,25.60
2022-09-02T13:48:10.985Z,25.71
2022-09-02T13:50:45.652Z,25.59
2022-09-02T13:53:45.390Z,25.25
2022-09-02T13:56:11.443Z,25.29
2022-09-02T13:58:44.125Z,24.63
2022-09-02T14:01:26.247Z,24.00
2022-09-02T14:04:00.265Z,23.26
2022-09-02T14:06:33.340Z,22.85
2022-09-02T14:09:04.581Z,22.59
2022-09-02T14:11:41.062Z,22.70
2022-09-02T14:14:11.537Z,22.98
2022-09-02T14:16:41.017Z,22.97
2022-09-02T14:19:15.238Z,22.79
2022-09-02T14:21:50.486Z,22.61
2022-09-02T14:24:23.730Z,22.45
2022-09-02T14:26:55.027Z,22.19
2022-09-02T14:29:25.129Z,21.83
2022-09-02T14:32:14.260Z,21.55
2022-09-02T14:34:47.402Z,21.56
2022-09-02T14:37:23.340Z,21.83
2022-09-02T14:39:57.602Z,21.95
2022-09-02T14:42:29.310Z,22.10
2022-09-02T14:45:00.157Z,22.17
2022-09-02T14:47:30.320Z,22.14
2022-09-02T14:50:02.478Z,22.36
2022-09-02T14:52:33.441Z,22.28
2022-09-02T14:55:03.098Z,22.30
2022-09-02T14:57:33.647Z,22.20
2022-09-02T15:00:06.953Z,22.02
2022-09-02T15:02:38.560Z,21.81
2022-09-02T15:05:14.656Z,21.70
2022-09-02T15:07:45.892Z,21.65
2022-09-02T15:10:15.370Z,21.69
2022-09-02T15:12:49.816Z,21.80
2022-09-02T15:15:19.750Z,21.82
2022-09-02T15:17:49.262Z,21.80
2022-09-02T15:20:21.760Z,21.75
2022-09-02T15:22:52.408Z,21.67
2022-09-02T15:25:22.378Z,21.76
2022-09-02T15:27:51.886Z,21.63
2022-09-02T15:30:21.795Z,21.49
2022-09-02T15:32:51.272Z,21.29
2022-09-02T15:35:23.409Z,21.26
2022-09-02T15:37:53.064Z,21.15
2022-09-02T15:40:22.846Z,21.07
2022-09-02T15:42:52.330Z,21.01
2022-09-02T15:45:21.823Z,21.07
2022-09-02T15:47:51.378Z,21.07
2022-09-02T15:50:23.551Z,20.96
2022-09-02T15:52:53.057Z,21.04
2022-09-02T15:55:29.061Z,20.95
2022-09-02T15:57:59.100Z,20.96
2022-09-02T16:00:32.150Z,20.83
2022-09-02T16:03:02.663Z,20.76
2022-09-02T16:05:34.770Z,20.69
2022-09-02T16:08:04.651Z,20.70
2022-09-02T16:10:34.229Z,20.55
2022-09-02T16:13:04.614Z,20.57
2022-09-02T16:15:35.146Z,20.44
2022-09-02T16:18:04.855Z,20.29
2022-09-02T16:20:37.026Z,20.22
2022-09-02T16:23:06.522Z,20.22
2022-09-02T16:25:36.021Z,20.31
2022-09-02T16:28:06.137Z,20.30
2022-09-02T16:30:35.760Z,20.33
2022-09-02T16:33:05.298Z,20.29
2022-09-02T16:35:37.342Z,20.34
2022-09-02T16:38:07.029Z,20.20
2022-09-02T16:40:36.633Z,20.17
2022-09-02T16:43:06.387Z,20.21
2022-09-02T16:45:35.924Z,20.08
2022-09-02T16:48:06.058Z,20.07
2022-09-02T16:50:38.161Z,20.03
2022-09-02T16:53:07.699Z,19.99
2022-09-02T16:55:38.341Z,19.89
2022-09-02T16:58:10.429Z,19.71
2022-09-02T17:00:41.867Z,19.73
2022-09-02T17:03:12.910Z,19.69
2022-09-02T17:05:46.317Z,19.69
2022-09-02T17:08:15.877Z,19.76
2022-09-02T17:10:46.154Z,19.56
2022-09-02T17:13:16.554Z,19.59
2022-09-02T17:15:46.186Z,19.50
2022-09-02T17:18:15.703Z,19.49
2022-09-02T17:20:47.891Z,19.41
2022-09-02T17:23:17.413Z,19.43
2022-09-02T17:25:48.369Z,19.38
2022-09-02T17:28:18.841Z,19.27
2022-09-02T17:30:48.565Z,19.28
2022-09-02T17:33:18.361Z,19.19
2022-09-02T17:35:57.828Z,19.18
2022-09-02T17:38:27.589Z,19.18
2022-09-02T17:41:09.670Z,19.18
2022-09-02T17:43:39.971Z,19.01
2022-09-02T17:46:10.041Z,18.99
2022-09-02T17:48:59.388Z,18.87
2022-09-02T17:51:32.307Z,18.98
2022-09-02T17:54:01.814Z,18.87
2022-09-02T17:57:12.831Z,18.94
2022-09-02T17:59:57.095Z,18.69
2022-09-02T18:02:44.815Z,18.63
2022-09-02T18:05:20.048Z,18.53
2022-09-02T18:08:01.299Z,18.42
2022-09-02T18:10:36.305Z,18.37
2022-09-02T18:13:08.310Z,18.31
2022-09-02T18:15:46.246Z,18.28
2022-09-02T18:18:17.398Z,18.18
2022-09-02T18:20:47.371Z,18.13
2022-09-02T18:23:43.188Z,18.06
2022-09-02T18:26:18.482Z,18.07
2022-09-02T18:28:56.574Z,18.00
2022-09-02T18:31:38.013Z,17.98
2022-09-02T18:34:15.341Z,17.95
2022-09-02T18:36:50.425Z,17.97
2022-09-02T18:39:44.580Z,17.92
2022-09-02T18:42:20.394Z,17.83
2022-09-02T18:44:56.382Z,17.84
2022-09-02T18:47:27.562Z,17.79
2022-09-02T18:49:58.440Z,17.68
2022-09-02T18:52:29.653Z,17.63
2022-09-02T18:55:06.662Z,17.55
2022-09-02T18:57:40.675Z,17.43
2022-09-02T19:00:12.742Z,17.37
2022-09-02T19:02:46.497Z,17.33
2022-09-02T19:05:19.027Z,17.27
2022-09-02T19:08:01.875Z,17.26
2022-09-02T19:10:34.578Z,17.18
2022-09-02T19:13:04.546Z,17.13
2022-09-02T19:15:34.079Z,17.01
2022-09-02T19:18:06.461Z,17.00
2022-09-02T19:20:36.578Z,17.00
2022-09-02T19:23:08.890Z,16.94
2022-09-02T19:25:41.030Z,16.95
2022-09-02T19:28:12.710Z,16.85
2022-09-02T19:30:42.385Z,16.82
2022-09-02T19:33:13.773Z,16.79
2022-09-02T19:35:47.651Z,16.77
2022-09-02T19:38:18.886Z,16.89
2022-09-02T19:40:51.449Z,17.03
2022-09-02T19:43:21.166Z,16.95
2022-09-02T19:45:51.524Z,17.01
2022-09-02T19:48:21.773Z,17.08
2022-09-02T19:50:51.607Z,16.97
2022-09-02T19:53:25.721Z,16.88
2022-09-02T19:55:57.798Z,16.84
2022-09-02T19:58:27.313Z,16.78
2022-09-02T20:00:57.311Z,16.84
2022-09-02T20:03:28.130Z,16.67
2022-09-02T20:05:57.661Z,16.58
2022-09-02T20:08:30.966Z,16.56
2022-09-02T20:11:05.201Z,16.53
2022-09-02T20:13:41.036Z,16.49
2022-09-02T20:16:20.338Z,16.47
2022-09-02T20:18:51.121Z,16.45
2022-09-02T20:21:22.837Z,16.45
2022-09-02T20:23:53.903Z,16.37
2022-09-02T20:26:37.472Z,16.37
2022-09-02T20:29:17.970Z,16.39
2022-09-02T20:31:56.202Z,16.29
2022-09-02T20:34:44.773Z,16.35
2022-09-02T20:37:24.985Z,16.40
2022-09-02T20:40:07.281Z,16.49
2022-09-02T20:42:54.323Z,16.51
2022-09-02T20:45:27.039Z,16.49
2022-09-02T20:48:05.162Z,16.51
2022-09-02T20:50:42.636Z,16.56
2022-09-02T20:53:21.991Z,16.55
2022-09-02T20:55:57.072Z,16.37
2022-09-02T20:58:37.024Z,16.35
2022-09-02T21:01:09.253Z,16.31
2022-09-02T21:03:52.230Z,16.27
2022-09-02T21:06:24.085Z,16.27
2022-09-02T21:09:01.422Z,16.19
2022-09-02T21:11:38.841Z,16.16
2022-09-02T21:14:13.956Z,16.14
2022-09-02T21:16:47.306Z,16.05
2022-09-02T21:19:22.227Z,16.02
2022-09-02T21:21:55.751Z,16.01
2022-09-02T21:24:28.482Z,16.01
2022-09-02T21:27:02.361Z,16.04
2022-09-02T21:29:40.171Z,16.04
2022-09-02T21:32:13.521Z,16.03
2022-09-02T21:34:48.209Z,15.97
2022-09-02T21:37:20.140Z,15.94
2022-09-02T21:39:54.024Z,15.86
2022-09-02T21:42:30.022Z,15.91
2022-09-02T21:45:08.587Z,15.88
2022-09-02T21:47:41.618Z,15.87
2022-09-02T21:50:16.554Z,15.85
2022-09-02T21:53:03.077Z,15.83
2022-09-02T21:55:42.078Z,15.84
2022-09-02T21:58:21.278Z,15.79
2022-09-02T22:00:57.916Z,15.75
2022-09-02T22:03:40.055Z,15.78
2022-09-02T22:06:14.209Z,15.77
2022-09-02T22:08:47.717Z,15.77
2022-09-02T22:11:21.650Z,15.75
2022-09-02T22:13:51.362Z,15.76
2022-09-02T22:16:32.793Z,15.78
2022-09-02T22:19:04.530Z,15.83
2022-09-02T22:21:37.994Z,15.71
2022-09-02T22:24:08.298Z,15.66
2022-09-02T22:26:42.865Z,15.64
2022-09-02T22:29:17.633Z,15.60
2022-09-02T22:31:55.154Z,15.57
2022-09-02T22:34:24.891Z,15.53
2022-09-02T22:36:58.064Z,15.52
2022-09-02T22:39:33.970Z,15.49
2022-09-02T22:42:08.220Z,15.50
2022-09-02T22:44:54.670Z,15.62
2022-09-02T22:47:39.973Z,15.99
2022-09-02T22:50:24.106Z,16.05
2022-09-02T22:52:57.225Z,15.91
2022-09-02T22:55:46.638Z,16.17
2022-09-02T22:58:25.662Z,15.99
2022-09-02T23:01:03.774Z,15.88
2022-09-02T23:03:41.707Z,15.89
2022-09-02T23:06:17.419Z,16.01
2022-09-02T23:08:48.206Z,15.86
2022-09-02T23:11:28.102Z,15.73
2022-09-02T23:14:10.559Z,15.49
2022-09-02T23:16:53.425Z,15.24
2022-09-02T23:19:39.364Z,15.16
2022-09-02T23:22:14.535Z,15.10
2022-09-02T23:24:49.505Z,15.01
2022-09-02T23:27:27.003Z,14.99
2022-09-02T23:29:57.994Z,14.98
2022-09-02T23:32:43.426Z,14.93
2022-09-02T23:35:21.551Z,14.95
2022-09-02T23:38:05.562Z,14.83
2022-09-02T23:40:41.014Z,14.67
2022-09-02T23:43:12.194Z,14.59
2022-09-02T23:45:41.726Z,14.61
2022-09-02T23:48:24.372Z,14.55
2022-09-02T23:51:06.422Z,14.51
2022-09-02T23:53:40.415Z,14.43
2022-09-02T23:56:20.291Z,14.51
2022-09-02T23:59:00.670Z,14.49
